createdAt,value
2022-11-28T00:00:08.356Z,36.38
2022-11-28T00:01:22.352Z,37.30
2022-11-28T00:02:25.096Z,38.47
2022-11-28T00:03:27.987Z,36.83
2022-11-28T00:04:30.740Z,36.17
2022-11-28T00:05:35.941Z,36.35
2022-11-28T00:06:41.186Z,36.67
2022-11-28T00:07:44.035Z,36.67
2022-11-28T00:08:47.131Z,35.95
2022-11-28T00:09:49.754Z,37.45
2022-11-28T00:10:52.369Z,37.50
2022-11-28T00:11:55.094Z,37.60
2022-11-28T00:12:57.800Z,36.25
2022-11-28T00:14:00.715Z,36.60
2022-11-28T00:15:04.892Z,38.97
2022-11-28T00:16:09.559Z,38.60
2022-11-28T00:17:12.191Z,36.83
2022-11-28T00:18:15.022Z,37.25
2022-11-28T00:19:17.684Z,38.13
2022-11-28T00:20:20.439Z,38.80
2022-11-28T00:21:23.506Z,37.78
2022-11-28T00:22:29.323Z,38.50
2022-11-28T00:23:33.211Z,39.00
2022-11-28T00:24:35.798Z,39.00
2022-11-28T00:25:38.490Z,35.88
2022-11-28T00:26:42.315Z,37.17
2022-11-28T00:27:45.443Z,36.70
2022-11-28T00:28:49.091Z,36.78
2022-11-28T00:29:51.754Z,37.20
2022-11-28T00:30:54.616Z,36.90
2022-11-28T00:31:57.352Z,37.95
2022-11-28T00:33:00.060Z,36.35
2022-11-28T00:34:03.463Z,36.92
2022-11-28T00:35:06.601Z,38.45
2022-11-28T00:36:09.669Z,38.00
2022-11-28T00:37:12.336Z,37.90
2022-11-28T00:38:14.947Z,39.92
2022-11-28T00:39:17.998Z,38.38
2022-11-28T00:40:20.603Z,38.75
2022-11-28T00:41:25.779Z,38.95
2022-11-28T00:42:28.580Z,37.20
2022-11-28T00:43:31.721Z,40.83
2022-11-28T00:44:34.358Z,38.33
2022-11-28T00:45:37.134Z,38.28
2022-11-28T00:46:40.103Z,36.45
2022-11-28T00:47:42.694Z,36.55
2022-11-28T00:48:45.799Z,39.17
2022-11-28T00:49:48.467Z,38.58
2022-11-28T00:50:51.614Z,38.33
2022-11-28T00:51:54.347Z,38.28
2022-11-28T00:52:57.023Z,38.33
2022-11-28T00:54:01.645Z,37.42
2022-11-28T00:55:04.554Z,36.83
2022-11-28T00:56:08.460Z,36.25
2022-11-28T00:57:11.115Z,38.10
2022-11-28T00:58:13.805Z,36.47
2022-11-28T00:59:16.496Z,37.55
2022-11-28T01:00:19.697Z,38.25
2022-11-28T01:01:28.745Z,35.42
2022-11-28T01:02:32.690Z,37.17
2022-11-28T01:03:35.525Z,36.80
2022-11-28T01:04:38.216Z,35.83
2022-11-28T01:05:43.285Z,34.78
2022-11-28T01:06:47.992Z,35.85
2022-11-28T01:07:50.731Z,34.92
2022-11-28T01:08:54.173Z,34.55
2022-11-28T01:09:56.899Z,35.92
2022-11-28T01:10:59.898Z,37.85
2022-11-28T01:12:02.803Z,36.08
2022-11-28T01:13:05.511Z,35.25
2022-11-28T01:14:08.556Z,32.65
2022-11-28T01:15:12.894Z,32.90
2022-11-28T01:16:16.078Z,34.55
2022-11-28T01:17:18.867Z,33.42
2022-11-28T01:18:21.547Z,32.90
2022-11-28T01:19:24.189Z,34.05
2022-11-28T01:20:26.806Z,34.63
2022-11-28T01:21:29.590Z,35.08
2022-11-28T01:22:32.485Z,41.38
2022-11-28T01:23:35.781Z,38.80
2022-11-28T01:24:38.426Z,39.13
2022-11-28T01:25:41.095Z,38.90
2022-11-28T01:26:43.877Z,38.72
2022-11-28T01:27:46.623Z,40.20
2022-11-28T01:28:49.311Z,37.95
2022-11-28T01:29:52.219Z,36.47
2022-11-28T01:30:54.871Z,37.92
2022-11-28T01:31:57.800Z,38.33
2022-11-28T01:33:00.473Z,37.70
2022-11-28T01:34:03.206Z,37.38
2022-11-28T01:35:06.056Z,37.15
2022-11-28T01:36:09.788Z,38.78
2022-11-28T01:37:12.405Z,39.75
2022-11-28T01:38:15.098Z,38.13
2022-11-28T01:39:17.838Z,37.85
2022-11-28T01:40:20.623Z,37.42
2022-11-28T01:41:25.900Z,39.58
2022-11-28T01:42:28.581Z,36.70
2022-11-28T01:43:31.805Z,37.92
2022-11-28T01:44:34.459Z,38.92
2022-11-28T01:45:38.669Z,40.42
2022-11-28T01:46:41.861Z,38.67
2022-11-28T01:47:45.329Z,37.63
2022-11-28T01:48:48.016Z,35.45
2022-11-28T01:49:50.887Z,38.03
2022-11-28T01:50:58.730Z,38.40
2022-11-28T01:52:08.213Z,37.72
2022-11-28T01:53:11.090Z,38.95
2022-11-28T01:54:15.276Z,36.88
2022-11-28T01:55:21.940Z,37.15
2022-11-28T01:56:27.662Z,37.63
2022-11-28T01:57:30.624Z,36.97
2022-11-28T01:58:35.317Z,37.22
2022-11-28T01:59:42.050Z,35.58
2022-11-28T02:00:44.861Z,37.38
2022-11-28T02:01:47.663Z,37.17
2022-11-28T02:02:54.912Z,36.50
2022-11-28T02:03:58.574Z,38.85
2022-11-28T02:05:01.820Z,37.58
2022-11-28T02:06:04.876Z,38.95
2022-11-28T02:07:07.589Z,37.13
2022-11-28T02:08:10.376Z,36.88
2022-11-28T02:09:15.188Z,36.38
2022-11-28T02:10:22.066Z,37.63
2022-11-28T02:11:52.240Z,37.92
2022-11-28T02:13:13.774Z,35.85
2022-11-28T02:15:00.321Z,36.50
2022-11-28T02:16:11.037Z,37.03
2022-11-28T02:18:36.133Z,35.17
2022-11-28T02:19:57.707Z,36.72
2022-11-28T02:21:36.353Z,35.85
2022-11-28T02:22:53.932Z,36.88
2022-11-28T02:24:20.719Z,38.47
2022-11-28T02:26:13.887Z,36.75
2022-11-28T02:27:35.332Z,37.60
2022-11-28T02:28:49.462Z,35.25
2022-11-28T02:30:24.634Z,37.13
2022-11-28T02:31:53.366Z,35.63
2022-11-28T02:33:19.541Z,35.47
2022-11-28T02:34:48.831Z,36.80
2022-11-28T02:36:14.467Z,36.45
2022-11-28T02:37:28.529Z,37.25
2022-11-28T02:39:06.401Z,41.00
2022-11-28T02:40:39.958Z,37.15
2022-11-28T02:41:46.904Z,38.78
2022-11-28T02:43:01.390Z,37.00
2022-11-28T02:44:26.398Z,39.53
2022-11-28T02:46:02.750Z,35.40
2022-11-28T02:47:06.361Z,37.47
2022-11-28T02:48:36.458Z,37.45
2022-11-28T02:49:47.304Z,38.33
2022-11-28T02:51:01.552Z,38.60
2022-11-28T02:52:09.882Z,34.67
2022-11-28T02:53:15.649Z,36.92
2022-11-28T02:54:21.262Z,36.03
2022-11-28T02:55:24.696Z,35.95
2022-11-28T02:56:27.326Z,38.40
2022-11-28T02:57:41.608Z,36.55
2022-11-28T02:58:44.270Z,36.05
2022-11-28T02:59:49.696Z,37.47
2022-11-28T03:00:52.664Z,35.67
2022-11-28T03:01:55.421Z,37.35
2022-11-28T03:03:23.154Z,37.17
2022-11-28T03:04:36.637Z,35.97
2022-11-28T03:06:00.548Z,35.03
2022-11-28T03:07:22.027Z,33.72
2022-11-28T03:08:54.673Z,32.58
2022-11-28T03:10:06.526Z,35.33
2022-11-28T03:11:23.444Z,33.88
2022-11-28T03:12:31.952Z,34.45
2022-11-28T03:13:41.994Z,35.75
2022-11-28T03:15:01.172Z,38.17
2022-11-28T03:16:29.620Z,33.72
2022-11-28T03:17:39.863Z,33.88
2022-11-28T03:19:11.199Z,34.42
2022-11-28T03:20:44.370Z,35.22
2022-11-28T03:22:10.764Z,35.38
2022-11-28T03:23:36.813Z,35.35
2022-11-28T03:25:02.474Z,33.22
2022-11-28T03:26:12.057Z,36.50
2022-11-28T03:28:06.660Z,34.15
2022-11-28T03:29:14.951Z,36.55
2022-11-28T03:30:33.031Z,33.90
2022-11-28T03:31:49.927Z,33.05
2022-11-28T03:32:55.138Z,35.00
2022-11-28T03:33:59.499Z,34.17
2022-11-28T03:35:18.497Z,36.75
2022-11-28T03:36:33.889Z,36.05
2022-11-28T03:37:43.645Z,34.53
2022-11-28T03:38:49.806Z,34.40
2022-11-28T03:39:57.454Z,34.53
2022-11-28T03:41:04.630Z,35.70
2022-11-28T03:42:10.962Z,35.75
2022-11-28T03:43:17.882Z,35.05
2022-11-28T03:44:31.768Z,36.03
2022-11-28T03:45:40.691Z,35.33
2022-11-28T03:46:47.798Z,34.92
2022-11-28T03:48:08.874Z,34.90
2022-11-28T03:49:12.228Z,33.25
2022-11-28T03:50:19.224Z,36.20
2022-11-28T03:51:49.831Z,34.80
2022-11-28T03:53:01.384Z,33.53
2022-11-28T03:54:11.458Z,33.22
2022-11-28T03:55:23.848Z,32.17
2022-11-28T03:56:40.687Z,33.75
2022-11-28T03:58:10.997Z,34.17
2022-11-28T03:59:20.428Z,33.95
2022-11-28T04:00:25.122Z,35.05
2022-11-28T04:01:32.687Z,35.13
2022-11-28T04:03:11.936Z,36.55
2022-11-28T04:04:19.289Z,36.97
2022-11-28T04:05:48.874Z,39.38
2022-11-28T04:07:29.079Z,39.13
2022-11-28T04:08:39.469Z,39.10
2022-11-28T04:09:47.124Z,40.67
2022-11-28T04:11:09.443Z,40.55
2022-11-28T04:12:34.911Z,38.58
2022-11-28T04:13:55.639Z,39.92
2022-11-28T04:15:04.789Z,38.72
2022-11-28T04:16:32.419Z,39.70
2022-11-28T04:17:53.228Z,40.33
2022-11-28T04:19:06.740Z,38.53
2022-11-28T04:20:36.741Z,40.20
2022-11-28T04:21:59.417Z,40.80
2022-11-28T04:23:09.648Z,41.03
2022-11-28T04:24:18.441Z,41.55
2022-11-28T04:25:22.764Z,41.20
2022-11-28T04:26:37.654Z,42.28
2022-11-28T04:27:47.879Z,40.42
2022-11-28T04:28:51.066Z,41.20
2022-11-28T04:29:56.872Z,44.95
2022-11-28T04:31:01.796Z,41.70
2022-11-28T04:32:05.765Z,44.90
2022-11-28T04:33:10.561Z,43.45
2022-11-28T04:34:17.468Z,44.60
2022-11-28T04:35:28.945Z,43.17
2022-11-28T04:36:32.965Z,44.47
2022-11-28T04:37:38.495Z,43.95
2022-11-28T04:38:41.838Z,42.80
2022-11-28T04:39:48.124Z,44.72
2022-11-28T04:41:19.945Z,45.47
2022-11-28T04:42:26.868Z,42.83
2022-11-28T04:43:33.549Z,44.10
2022-11-28T04:44:50.022Z,44.35
2022-11-28T04:46:15.279Z,41.85
2022-11-28T04:47:18.350Z,45.53
2022-11-28T04:48:21.133Z,44.80
2022-11-28T04:49:26.821Z,47.10
2022-11-28T04:50:34.569Z,49.22
2022-11-28T04:51:50.771Z,45.83
2022-11-28T04:52:59.211Z,43.40
2022-11-28T04:54:16.814Z,42.58
2022-11-28T04:55:25.419Z,45.10
2022-11-28T04:56:39.115Z,43.88
2022-11-28T04:57:41.766Z,45.95
2022-11-28T04:58:47.314Z,44.97
2022-11-28T04:59:50.235Z,43.45
2022-11-28T05:00:54.392Z,42.72
2022-11-28T05:01:58.707Z,44.67
2022-11-28T05:03:01.580Z,42.97
2022-11-28T05:04:04.336Z,43.60
2022-11-28T05:05:10.412Z,43.40
2022-11-28T05:06:25.976Z,42.58
2022-11-28T05:07:28.844Z,43.83
2022-11-28T05:08:31.580Z,42.35
2022-11-28T05:09:34.831Z,43.63
2022-11-28T05:10:37.529Z,43.55
2022-11-28T05:11:40.384Z,43.88
2022-11-28T05:12:43.076Z,43.83
2022-11-28T05:13:46.142Z,43.60
2022-11-28T05:14:48.825Z,43.40
2022-11-28T05:15:52.011Z,43.53
2022-11-28T05:16:54.713Z,42.63
2022-11-28T05:17:57.433Z,42.60
2022-11-28T05:19:00.258Z,45.28
2022-11-28T05:20:03.023Z,43.67
2022-11-28T05:21:09.376Z,45.25
2022-11-28T05:22:11.959Z,43.30
2022-11-28T05:23:14.634Z,43.30
2022-11-28T05:24:17.370Z,44.80
2022-11-28T05:25:20.280Z,42.63
2022-11-28T05:26:22.975Z,40.72
2022-11-28T05:27:25.793Z,40.95
2022-11-28T05:28:28.388Z,45.17
2022-11-28T05:29:31.220Z,43.58
2022-11-28T05:30:33.872Z,40.70
2022-11-28T05:31:37.683Z,41.67
2022-11-28T05:32:40.437Z,43.00
2022-11-28T05:33:43.143Z,41.25
2022-11-28T05:34:45.876Z,39.60
2022-11-28T05:35:48.785Z,42.17
2022-11-28T05:36:51.507Z,42.88
2022-11-28T05:37:54.136Z,45.60
2022-11-28T05:38:56.775Z,43.00
2022-11-28T05:39:59.346Z,43.30
2022-11-28T05:41:02.510Z,43.58
2022-11-28T05:42:05.339Z,43.22
2022-11-28T05:43:07.971Z,45.63
2022-11-28T05:44:10.776Z,42.95
2022-11-28T05:45:13.703Z,43.50
2022-11-28T05:46:17.009Z,41.70
2022-11-28T05:47:19.940Z,41.88
2022-11-28T05:48:23.352Z,42.30
2022-11-28T05:49:28.823Z,43.63
2022-11-28T05:50:35.693Z,40.67
2022-11-28T05:51:41.238Z,41.17
2022-11-28T05:52:43.883Z,42.95
2022-11-28T05:53:46.546Z,41.90
2022-11-28T05:54:49.237Z,39.22
2022-11-28T05:55:51.902Z,40.78
2022-11-28T05:56:54.626Z,42.53
2022-11-28T05:57:57.327Z,43.13
2022-11-28T05:59:00.028Z,40.90
2022-11-28T06:00:03.254Z,42.58
2022-11-28T06:01:20.495Z,40.83
2022-11-28T06:02:23.268Z,39.92
2022-11-28T06:03:25.900Z,40.83
2022-11-28T06:04:28.693Z,39.17
2022-11-28T06:05:46.972Z,37.63
2022-11-28T06:06:50.938Z,40.08
2022-11-28T06:07:53.673Z,38.30
2022-11-28T06:08:56.989Z,38.42
2022-11-28T06:09:59.772Z,41.35
2022-11-28T06:11:02.440Z,39.88
2022-11-28T06:12:05.605Z,39.88
2022-11-28T06:13:08.704Z,41.38
2022-11-28T06:14:11.750Z,41.78
2022-11-28T06:15:14.524Z,38.22
2022-11-28T06:16:20.295Z,39.35
2022-11-28T06:17:23.077Z,40.13
2022-11-28T06:18:25.849Z,41.22
2022-11-28T06:19:28.463Z,42.45
2022-11-28T06:20:31.131Z,40.28
2022-11-28T06:21:33.732Z,39.47
2022-11-28T06:22:36.475Z,39.90
2022-11-28T06:23:39.294Z,40.78
2022-11-28T06:24:42.129Z,39.22
2022-11-28T06:25:44.816Z,39.05
2022-11-28T06:26:47.543Z,39.30
2022-11-28T06:27:50.240Z,39.22
2022-11-28T06:28:55.485Z,39.03
2022-11-28T06:29:58.126Z,38.42
2022-11-28T06:31:01.049Z,39.80
2022-11-28T06:32:03.731Z,38.55
2022-11-28T06:33:06.468Z,39.13
2022-11-28T06:34:12.002Z,40.55
2022-11-28T06:35:14.843Z,38.55
2022-11-28T06:36:18.955Z,40.20
2022-11-28T06:37:21.652Z,40.58
2022-11-28T06:38:24.310Z,38.67
2022-11-28T06:39:26.988Z,42.08
2022-11-28T06:40:29.797Z,38.78
2022-11-28T06:41:32.460Z,38.72
2022-11-28T06:42:36.640Z,41.58
2022-11-28T06:43:40.216Z,40.40
2022-11-28T06:44:43.058Z,41.38
2022-11-28T06:45:45.755Z,39.03
2022-11-28T06:46:48.500Z,40.35
2022-11-28T06:47:51.152Z,42.38
2022-11-28T06:48:53.889Z,40.92
2022-11-28T06:49:56.807Z,42.38
2022-11-28T06:51:04.315Z,42.25
2022-11-28T06:52:06.918Z,39.45
2022-11-28T06:53:09.519Z,43.60
2022-11-28T06:54:12.325Z,39.58
2022-11-28T06:55:14.965Z,39.25
2022-11-28T06:56:19.767Z,41.90
2022-11-28T06:57:22.479Z,39.45
2022-11-28T06:58:25.114Z,37.33
2022-11-28T06:59:27.761Z,37.47
2022-11-28T07:00:31.208Z,38.92
2022-11-28T07:01:34.444Z,38.38
2022-11-28T07:02:37.351Z,38.28
2022-11-28T07:03:40.663Z,36.30
2022-11-28T07:04:43.399Z,37.22
2022-11-28T07:05:46.292Z,38.72
2022-11-28T07:06:48.991Z,35.55
2022-11-28T07:07:54.399Z,38.63
2022-11-28T07:08:58.646Z,40.13
2022-11-28T07:10:01.293Z,39.65
2022-11-28T07:11:24.474Z,39.50
2022-11-28T07:12:27.130Z,37.85
2022-11-28T07:13:29.766Z,40.42
2022-11-28T07:14:33.655Z,40.10
2022-11-28T07:15:36.484Z,38.47
2022-11-28T07:16:39.625Z,41.83
2022-11-28T07:17:42.352Z,39.70
2022-11-28T07:18:45.158Z,40.45
2022-11-28T07:19:53.496Z,43.05
2022-11-28T07:20:57.664Z,40.22
2022-11-28T07:22:00.786Z,39.38
2022-11-28T07:23:03.403Z,39.13
2022-11-28T07:24:06.392Z,40.80
2022-11-28T07:25:09.682Z,41.80
2022-11-28T07:26:14.144Z,40.25
2022-11-28T07:27:16.810Z,39.17
2022-11-28T07:28:23.096Z,41.00
2022-11-28T07:29:30.815Z,39.30
2022-11-28T07:30:33.509Z,38.08
2022-11-28T07:31:37.385Z,39.33
2022-11-28T07:32:41.162Z,39.75
2022-11-28T07:33:45.775Z,38.55
2022-11-28T07:34:50.274Z,36.33
2022-11-28T07:35:53.005Z,41.22
2022-11-28T07:36:55.688Z,38.38
2022-11-28T07:37:58.378Z,36.80
2022-11-28T07:39:02.573Z,39.45
2022-11-28T07:40:05.999Z,42.28
2022-11-28T07:41:12.270Z,38.38
2022-11-28T07:42:14.884Z,37.35
2022-11-28T07:43:18.980Z,39.80
2022-11-28T07:44:21.699Z,40.85
2022-11-28T07:45:32.983Z,41.25
2022-11-28T07:46:45.724Z,37.05
2022-11-28T07:47:48.699Z,38.67
2022-11-28T07:48:51.640Z,37.22
2022-11-28T07:49:54.507Z,39.95
2022-11-28T07:50:57.318Z,40.15
2022-11-28T07:52:00.349Z,36.90
2022-11-28T07:53:07.178Z,38.35
2022-11-28T07:54:10.373Z,39.97
2022-11-28T07:55:13.017Z,38.92
2022-11-28T07:56:20.767Z,38.70
2022-11-28T07:57:23.474Z,35.92
2022-11-28T07:58:26.135Z,36.97
2022-11-28T07:59:28.855Z,35.53
2022-11-28T08:00:32.533Z,38.05
2022-11-28T08:01:36.164Z,38.40
2022-11-28T08:02:39.376Z,36.60
2022-11-28T08:03:42.186Z,36.42
2022-11-28T08:04:50.497Z,35.88
2022-11-28T08:06:02.954Z,33.80
2022-11-28T08:07:05.893Z,32.33
2022-11-28T08:08:08.508Z,33.83
2022-11-28T08:09:14.136Z,36.03
2022-11-28T08:10:17.375Z,34.58
2022-11-28T08:11:21.699Z,35.38
2022-11-28T08:12:24.396Z,35.70
2022-11-28T08:13:27.474Z,34.45
2022-11-28T08:14:30.166Z,35.00
2022-11-28T08:15:32.885Z,36.90
2022-11-28T08:16:37.035Z,33.10
2022-11-28T08:17:40.203Z,34.65
2022-11-28T08:18:43.103Z,36.25
2022-11-28T08:19:45.783Z,33.35
2022-11-28T08:20:48.430Z,34.72
2022-11-28T08:21:51.117Z,38.10
2022-11-28T08:22:53.773Z,38.53
2022-11-28T08:23:59.927Z,36.72
2022-11-28T08:25:02.543Z,36.45
2022-11-28T08:26:07.629Z,36.15
2022-11-28T08:27:10.289Z,39.47
2022-11-28T08:28:13.002Z,33.38
2022-11-28T08:29:15.561Z,37.72
2022-11-28T08:30:18.449Z,36.65
2022-11-28T08:31:27.277Z,33.60
2022-11-28T08:32:30.599Z,36.85
2022-11-28T08:33:33.337Z,36.35
2022-11-28T08:34:36.257Z,35.08
2022-11-28T08:35:40.025Z,36.35
2022-11-28T08:36:43.541Z,34.47
2022-11-28T08:37:46.423Z,34.17
2022-11-28T08:39:03.349Z,34.35
2022-11-28T08:40:13.135Z,33.25
2022-11-28T08:41:20.922Z,33.30
2022-11-28T08:42:23.745Z,31.42
2022-11-28T08:43:26.571Z,32.90
2022-11-28T08:44:30.741Z,33.22
2022-11-28T08:45:34.830Z,30.95
2022-11-28T08:46:37.648Z,31.63
2022-11-28T08:47:40.264Z,31.80
2022-11-28T08:48:43.619Z,33.05
2022-11-28T08:49:46.354Z,31.92
2022-11-28T08:50:49.665Z,35.13
2022-11-28T08:51:52.287Z,32.20
2022-11-28T08:52:55.049Z,35.25
2022-11-28T08:53:59.613Z,34.97
2022-11-28T08:55:02.765Z,34.00
2022-11-28T08:56:05.793Z,34.70
2022-11-28T08:57:08.697Z,35.15
2022-11-28T08:58:12.325Z,36.75
2022-11-28T08:59:14.958Z,35.15
2022-11-28T09:00:17.893Z,39.03
2022-11-28T09:01:23.243Z,38.05
2022-11-28T09:02:26.320Z,36.72
2022-11-28T09:03:29.129Z,34.63
2022-11-28T09:04:32.023Z,36.42
2022-11-28T09:05:35.121Z,36.00
2022-11-28T09:06:41.022Z,34.45
2022-11-28T09:07:43.899Z,36.20
2022-11-28T09:08:47.278Z,35.15
2022-11-28T09:09:49.917Z,33.88
2022-11-28T09:10:52.486Z,34.33
2022-11-28T09:11:55.459Z,34.10
2022-11-28T09:12:58.142Z,33.38
2022-11-28T09:14:00.939Z,32.20
2022-11-28T09:15:03.824Z,31.30
2022-11-28T09:16:07.226Z,31.55
2022-11-28T09:17:10.052Z,31.70
2022-11-28T09:18:14.270Z,34.97
2022-11-28T09:19:17.046Z,31.08
2022-11-28T09:20:21.297Z,30.77
2022-11-28T09:21:23.975Z,33.45
2022-11-28T09:22:29.570Z,28.83
2022-11-28T09:23:32.290Z,32.22
2022-11-28T09:24:34.964Z,33.08
2022-11-28T09:25:38.873Z,31.92
2022-11-28T09:26:42.547Z,28.77
2022-11-28T09:27:45.203Z,32.08
2022-11-28T09:28:48.232Z,33.45
2022-11-28T09:29:50.939Z,31.05
2022-11-28T09:31:00.581Z,32.42
2022-11-28T09:32:03.556Z,32.60
2022-11-28T09:33:06.978Z,30.63
2022-11-28T09:34:09.612Z,32.75
2022-11-28T09:35:12.477Z,31.40
2022-11-28T09:36:20.795Z,29.25
2022-11-28T09:37:23.630Z,30.13
2022-11-28T09:38:26.527Z,28.65
2022-11-28T09:39:39.599Z,29.88
2022-11-28T09:40:52.210Z,28.75
2022-11-28T09:42:15.501Z,30.10
2022-11-28T09:43:30.730Z,30.23
2022-11-28T09:44:45.489Z,29.55
2022-11-28T09:45:51.031Z,29.83
2022-11-28T09:46:58.214Z,30.58
2022-11-28T09:48:18.187Z,32.67
2022-11-28T09:49:23.684Z,32.60
2022-11-28T09:50:30.895Z,28.58
2022-11-28T09:51:54.372Z,28.67
2022-11-28T09:53:22.529Z,27.73
2022-11-28T09:54:44.929Z,30.77
2022-11-28T09:55:51.194Z,29.83
2022-11-28T09:56:53.874Z,28.50
2022-11-28T09:57:56.614Z,29.00
2022-11-28T09:59:03.337Z,28.67
2022-11-28T10:00:11.934Z,27.98
2022-11-28T10:01:40.477Z,31.08
2022-11-28T10:03:09.262Z,27.75
2022-11-28T10:04:31.243Z,26.77
2022-11-28T10:05:42.700Z,28.20
2022-11-28T10:06:57.854Z,27.95
2022-11-28T10:08:24.898Z,28.10
2022-11-28T10:10:05.307Z,26.75
2022-11-28T10:11:26.495Z,26.98
2022-11-28T10:13:07.228Z,27.52
2022-11-28T10:14:44.200Z,26.23
2022-11-28T10:15:59.805Z,27.42
2022-11-28T10:17:17.397Z,28.48
2022-11-28T10:18:31.935Z,27.33
2022-11-28T10:19:53.913Z,28.85
2022-11-28T10:21:02.923Z,28.40
2022-11-28T10:22:09.958Z,27.23
2022-11-28T10:23:23.215Z,29.50
2022-11-28T10:24:38.589Z,27.38
2022-11-28T10:25:50.209Z,26.73
2022-11-28T10:26:59.219Z,28.27
2022-11-28T10:28:04.808Z,27.35
2022-11-28T10:29:51.660Z,28.50
2022-11-28T10:31:01.217Z,27.58
2022-11-28T10:32:04.651Z,27.20
2022-11-28T10:33:25.839Z,27.40
2022-11-28T10:34:42.066Z,25.35
2022-11-28T10:35:56.768Z,25.77
2022-11-28T10:37:02.432Z,25.17
2022-11-28T10:38:11.807Z,26.00
2022-11-28T10:39:15.110Z,26.00
2022-11-28T10:40:38.129Z,26.85
2022-11-28T10:42:11.678Z,24.55
2022-11-28T10:43:29.565Z,26.33
2022-11-28T10:44:39.048Z,24.17
2022-11-28T10:45:59.575Z,25.60
2022-11-28T10:47:22.311Z,23.63
2022-11-28T10:48:40.070Z,25.90
2022-11-28T10:50:02.361Z,24.00
2022-11-28T10:51:23.873Z,26.77
2022-11-28T10:52:46.484Z,25.33
2022-11-28T10:54:07.004Z,23.30
2022-11-28T10:55:18.659Z,24.45
2022-11-28T10:56:45.156Z,23.73
2022-11-28T10:57:47.698Z,22.67
2022-11-28T10:59:14.625Z,26.00
2022-11-28T11:00:18.571Z,26.10
2022-11-28T11:01:21.891Z,23.27
2022-11-28T11:02:52.155Z,25.38
2022-11-28T11:03:54.712Z,24.50
2022-11-28T11:04:57.642Z,25.58
2022-11-28T11:06:00.778Z,24.10
2022-11-28T11:07:16.177Z,23.83
2022-11-28T11:08:26.658Z,25.67
2022-11-28T11:09:29.534Z,26.23
2022-11-28T11:10:38.267Z,24.00
2022-11-28T11:11:55.410Z,24.75
2022-11-28T11:12:59.167Z,23.67
2022-11-28T11:14:07.581Z,25.42
2022-11-28T11:15:29.976Z,24.10
2022-11-28T11:16:52.491Z,24.75
2022-11-28T11:17:55.460Z,24.50
2022-11-28T11:18:58.146Z,23.70
2022-11-28T11:20:01.342Z,23.55
2022-11-28T11:21:11.748Z,23.33
2022-11-28T11:22:23.114Z,23.05
2022-11-28T11:23:25.827Z,21.20
2022-11-28T11:24:28.994Z,23.02
2022-11-28T11:25:32.861Z,23.15
2022-11-28T11:26:39.186Z,23.27
2022-11-28T11:27:53.010Z,23.42
2022-11-28T11:28:56.777Z,23.67
2022-11-28T11:29:59.650Z,23.83
2022-11-28T11:31:05.267Z,21.20
2022-11-28T11:32:21.782Z,23.52
2022-11-28T11:33:26.935Z,24.35
2022-11-28T11:34:43.146Z,24.10
2022-11-28T11:35:48.791Z,22.23
2022-11-28T11:36:51.656Z,22.58
2022-11-28T11:38:14.292Z,26.23
2022-11-28T11:39:21.449Z,23.08
2022-11-28T11:40:27.752Z,23.63
2022-11-28T11:41:31.483Z,23.88
2022-11-28T11:42:34.172Z,23.63
2022-11-28T11:43:36.903Z,22.27
2022-11-28T11:44:39.525Z,22.42
2022-11-28T11:45:42.324Z,22.27
2022-11-28T11:47:05.434Z,24.65
2022-11-28T11:48:11.985Z,23.45
2022-11-28T11:49:28.691Z,22.95
2022-11-28T11:50:33.182Z,23.58
2022-11-28T11:51:59.520Z,24.17
2022-11-28T11:53:03.058Z,20.65
2022-11-28T11:54:16.923Z,23.10
2022-11-28T11:55:19.661Z,23.05
2022-11-28T11:56:22.282Z,22.55
2022-11-28T11:57:37.259Z,21.70
2022-11-28T11:58:51.690Z,21.00
2022-11-28T12:00:07.639Z,22.58
2022-11-28T12:01:18.168Z,22.88
2022-11-28T12:02:35.910Z,21.73
2022-11-28T12:04:08.387Z,19.88
2022-11-28T12:05:21.514Z,21.27
2022-11-28T12:06:34.737Z,20.70
2022-11-28T12:08:12.529Z,20.88
2022-11-28T12:09:32.037Z,20.67
2022-11-28T12:10:37.866Z,21.90
2022-11-28T12:11:46.894Z,21.58
2022-11-28T12:12:50.550Z,21.38
2022-11-28T12:13:53.447Z,22.55
2022-11-28T12:14:56.553Z,22.38
2022-11-28T12:16:20.439Z,24.05
2022-11-28T12:17:58.861Z,23.00
2022-11-28T12:19:10.477Z,22.48
2022-11-28T12:20:48.447Z,23.58
2022-11-28T12:22:03.084Z,23.38
2022-11-28T12:23:29.756Z,23.88
2022-11-28T12:24:53.323Z,22.85
2022-11-28T12:26:10.116Z,24.83
2022-11-28T12:27:34.269Z,24.13
2022-11-28T12:29:01.973Z,23.65
2022-11-28T12:30:26.211Z,26.75
2022-11-28T12:31:42.120Z,25.58
2022-11-28T12:32:57.104Z,23.83
2022-11-28T12:34:50.794Z,23.27
2022-11-28T12:36:07.867Z,23.17
2022-11-28T12:37:55.251Z,23.80
2022-11-28T12:39:12.755Z,22.15
2022-11-28T12:40:44.712Z,25.70
2022-11-28T12:42:09.364Z,22.67
2022-11-28T12:43:14.663Z,23.02
2022-11-28T12:45:12.577Z,25.83
2022-11-28T12:46:18.430Z,21.50
2022-11-28T12:47:24.089Z,22.92
2022-11-28T12:48:53.654Z,23.25
2022-11-28T12:50:08.562Z,21.77
2022-11-28T12:51:17.327Z,21.67
2022-11-28T12:52:40.271Z,22.88
2022-11-28T12:54:10.389Z,20.77
2022-11-28T12:55:24.776Z,20.17
2022-11-28T12:57:00.245Z,22.88
2022-11-28T12:58:06.903Z,22.10
2022-11-28T12:59:31.502Z,20.05
2022-11-28T13:00:40.168Z,22.45
2022-11-28T13:02:29.736Z,19.98
2022-11-28T13:03:41.546Z,19.63
2022-11-28T13:05:24.119Z,19.65
2022-11-28T13:06:38.269Z,18.42
2022-11-28T13:08:14.830Z,21.80
2022-11-28T13:09:44.106Z,20.67
2022-11-28T13:11:07.814Z,20.83
2022-11-28T13:12:38.765Z,19.05
2022-11-28T13:14:05.104Z,18.58
2022-11-28T13:15:21.274Z,19.90
2022-11-28T13:16:29.584Z,18.95
2022-11-28T13:17:44.280Z,20.25
2022-11-28T13:19:10.187Z,21.58
2022-11-28T13:20:43.473Z,20.92
2022-11-28T13:22:12.646Z,18.73
2022-11-28T13:23:24.584Z,19.92
2022-11-28T13:25:07.397Z,21.65
2022-11-28T13:26:18.477Z,20.23
2022-11-28T13:27:32.520Z,21.35
2022-11-28T13:29:13.066Z,24.15
2022-11-28T13:30:22.540Z,22.00
2022-11-28T13:31:28.372Z,21.35
2022-11-28T13:32:40.408Z,24.63
2022-11-28T13:33:48.573Z,22.25
2022-11-28T13:34:51.602Z,21.80
2022-11-28T13:35:54.439Z,23.48
2022-11-28T13:39:11.401Z,24.02
2022-11-28T13:40:19.454Z,22.98
2022-11-28T13:42:06.413Z,23.27
2022-11-28T13:43:10.241Z,22.83
2022-11-28T13:44:35.235Z,24.55
2022-11-28T13:45:44.662Z,22.58
2022-11-28T13:46:51.606Z,21.60
2022-11-28T13:47:55.724Z,22.95
2022-11-28T13:49:14.766Z,24.90
2022-11-28T13:50:37.246Z,25.40
2022-11-28T13:51:39.939Z,25.25
2022-11-28T13:52:43.505Z,24.50
2022-11-28T13:53:47.339Z,25.85
2022-11-28T13:54:50.073Z,26.30
2022-11-28T13:56:07.824Z,25.80
2022-11-28T13:57:21.950Z,26.70
2022-11-28T13:58:44.459Z,27.25
2022-11-28T13:59:56.386Z,26.33
2022-11-28T14:01:09.171Z,25.23
2022-11-28T14:02:45.063Z,26.25
2022-11-28T14:04:07.814Z,22.73
2022-11-28T14:05:32.384Z,23.58
2022-11-28T14:06:40.801Z,23.45
2022-11-28T14:07:47.792Z,22.23
2022-11-28T14:09:06.822Z,20.67
2022-11-28T14:10:24.450Z,21.77
2022-11-28T14:11:46.558Z,22.08
2022-11-28T14:13:09.789Z,21.13
2022-11-28T14:14:19.229Z,22.55
2022-11-28T14:15:26.835Z,20.52
2022-11-28T14:16:51.700Z,21.10
2022-11-28T14:18:48.023Z,19.80
2022-11-28T14:19:46.529Z,19.63
2022-11-28T14:20:57.672Z,20.42
2022-11-28T14:22:24.393Z,20.38
2022-11-28T14:23:34.818Z,19.08
2022-11-28T14:25:04.225Z,21.33
2022-11-28T14:26:27.560Z,20.45
2022-11-28T14:27:34.235Z,19.38
2022-11-28T14:28:40.212Z,19.38
2022-11-28T14:29:47.986Z,18.60
2022-11-28T14:30:51.653Z,21.77
2022-11-28T14:32:27.941Z,20.27
2022-11-28T14:33:56.570Z,18.30
2022-11-28T14:36:24.018Z,17.95
2022-11-28T14:37:29.303Z,19.20
2022-11-28T14:38:33.626Z,19.50
2022-11-28T14:39:36.505Z,19.58
2022-11-28T14:40:56.854Z,20.38
2022-11-28T14:42:05.759Z,18.40
2022-11-28T14:43:33.949Z,20.27
2022-11-28T14:44:50.667Z,20.42
2022-11-28T14:46:17.841Z,20.05
2022-11-28T14:47:35.030Z,19.58
2022-11-28T14:48:42.223Z,18.73
2022-11-28T14:49:44.992Z,20.10
2022-11-28T14:50:53.406Z,20.00
2022-11-28T14:52:46.223Z,19.02
2022-11-28T14:53:44.732Z,18.80
2022-11-28T14:54:49.517Z,20.42
2022-11-28T14:55:52.349Z,20.88
2022-11-28T14:56:59.779Z,18.73
2022-11-28T14:58:05.290Z,17.50
2022-11-28T14:59:10.767Z,17.80
2022-11-28T15:00:23.032Z,18.23
2022-11-28T15:01:29.308Z,18.77
2022-11-28T15:03:16.654Z,17.58